Time;durP1;ratioP1;P1;durP2;ratioP2;P2;SDS_P1;SDS_P2;PMS_P1;PMS_P2;Temp;Humidity;BMP_temperature;BMP_pressure;BME280_temperature;BME280_humidity;BME280_pressure;Samples;Min_cycle;Max_cycle;Signal;HPM_P1;HPM_P2
2021/11/06 00:02:11;;;;;;;6.57;5.15;;;;;;;9.39;57.27;100887.56;4389903;32;34524;-81
2021/11/06 00:04:58;;;;;;;;;;;;;;;9.40;57.15;100889.25;4397309;32;34670;-81
2021/11/06 00:07:26;;;;;;;6.00;2.55;;;;;;;9.27;57.85;100888.44;4405251;32;34476;-81
2021/11/06 00:10:32;;;;;;;6.90;3.33;;;;;;;9.07;58.47;100902.28;4386172;32;33359;-81
2021/11/06 00:13:13;;;;;;;3.72;3.22;;;;;;;9.02;58.65;100897.31;4375696;32;33221;-81
2021/11/06 00:15:51;;;;;;;;;;;;;;;9.00;58.75;100901.03;4390855;32;35892;-81
2021/11/06 00:18:34;;;;;;;4.55;3.50;;;;;;;9.09;59.04;100909.16;4394932;32;33349;-81
2021/11/06 00:21:26;;;;;;;3.40;3.10;;;;;;;9.07;58.84;100907.59;4396456;32;32807;-80
2021/11/06 00:24:14;;;;;;;3.95;3.37;;;;;;;9.01;58.94;100905.38;4390482;32;33267;-80
2021/11/06 00:27:06;;;;;;;4.70;4.22;;;;;;;8.96;58.99;100902.16;4390633;32;34718;-81
2021/11/06 00:29:54;;;;;;;5.78;3.67;;;;;;;9.01;59.28;100911.53;4386701;32;33391;-81
2021/11/06 00:32:44;;;;;;;4.62;3.70;;;;;;;8.91;59.49;100913.09;4391910;32;32751;-81
2021/11/06 00:35:37;;;;;;;3.40;3.10;;;;;;;9.23;58.45;100922.34;4387210;32;32548;-81
2021/11/06 00:38:24;;;;;;;5.15;4.65;;;;;;;9.11;58.54;100922.34;4387718;32;36143;-81
2021/11/06 00:40:52;;;;;;;7.53;5.18;;;;;;;9.03;59.24;100914.94;4386594;32;33873;-80
2021/11/06 00:43:27;;;;;;;2.95;2.50;;;;;;;9.35;57.86;100921.44;4383055;32;33404;-81
2021/11/06 00:46:15;;;;;;;5.50;5.03;;;;;;;9.36;57.81;100924.97;4390382;32;33870;-81
2021/11/06 00:48:47;;;;;;;3.62;3.40;;;;;;;9.26;58.03;100916.78;4388511;32;36538;-81
2021/11/06 00:51:15;;;;;;;4.57;4.22;;;;;;;9.24;57.94;100912.53;4384122;32;34057;-81
2021/11/06 00:54:03;;;;;;;2.95;2.75;;;;;;;9.31;57.91;100913.81;4395006;32;33498;-82
2021/11/06 00:56:51;;;;;;;4.32;4.05;;;;;;;9.36;57.67;100920.50;4388095;32;34030;-81
2021/11/06 00:59:22;;;;;;;5.15;4.07;;;;;;;8.91;59.07;100922.88;4387891;32;33916;-81
2021/11/06 01:01:57;;;;;;;4.87;3.35;;;;;;;9.09;58.34;100911.81;4385343;32;33545;-81
2021/11/06 01:04:29;;;;;;;8.23;3.40;;;;;;;8.94;59.00;100912.91;4384059;32;33362;-81
2021/11/06 01:07:21;;;;;;;4.40;3.80;;;;;;;8.73;59.25;100918.84;4400592;32;34045;-81
2021/11/06 01:10:06;;;;;;;3.30;3.00;;;;;;;9.15;58.28;100913.19;4373318;32;35074;-80
2021/11/06 01:12:50;;;;;;;2.53;2.33;;;;;;;8.88;59.05;100923.94;4389313;32;33360;-82
2021/11/06 01:15:54;;;;;;;5.50;5.07;;;;;;;8.90;58.92;100930.00;4372706;32;34119;-81
2021/11/06 01:18:41;;;;;;;;;;;;;;;8.88;58.98;100929.25;4372049;32;33679;-81
2021/11/06 01:21:29;;;;;;;;;;;;;;;8.72;59.57;100933.91;4368076;32;34475;-81
2021/11/06 01:24:16;;;;;;;3.08;2.85;;;;;;;8.24;60.87;100936.41;4367134;32;33464;-81
2021/11/06 01:27:05;;;;;;;;;;;;;;;8.54;59.95;100940.47;4362742;32;33112;-80
2021/11/06 01:29:53;;;;;;;2.58;2.37;;;;;;;8.72;59.53;100943.69;4373317;32;33028;-81
2021/11/06 01:32:29;;;;;;;3.17;2.97;;;;;;;8.63;59.89;100937.19;4346929;32;35377;-81
2021/11/06 01:34:58;;;;;;;6.03;3.58;;;;;;;8.77;59.21;100942.41;4387176;32;34524;-81
2021/11/06 01:37:49;;;;;;;4.03;3.72;;;;;;;8.75;59.25;100946.97;4385405;32;32228;-81
2021/11/06 01:40:37;;;;;;;3.53;3.22;;;;;;;8.77;59.29;100938.91;4386537;32;34078;-81
2021/11/06 01:43:21;;;;;;;4.43;3.58;;;;;;;8.58;59.85;100941.09;4387272;32;34797;-81
2021/11/06 01:46:10;;;;;;;5.55;2.85;;;;;;;8.43;60.26;100941.31;4378386;32;33377;-81
2021/11/06 01:48:57;;;;;;;4.80;4.40;;;;;;;8.84;58.89;100945.50;4388589;32;34154;-81
2021/11/06 01:51:45;;;;;;;4.30;3.83;;;;;;;8.75;58.98;100941.69;4395967;32;33581;-81
2021/11/06 01:54:53;;;;;;;2.42;2.15;;;;;;;8.65;59.32;100943.25;4383033;32;34327;-80
2021/11/06 01:57:43;;;;;;;4.18;3.70;;;;;;;8.49;59.91;100947.03;4372895;32;33541;-81
2021/11/06 02:00:28;;;;;;;4.25;3.95;;;;;;;8.64;59.42;100946.88;4380015;32;34055;-80
2021/11/06 02:03:14;;;;;;;3.80;3.20;;;;;;;8.48;59.93;100947.16;4392521;32;34208;-81
2021/11/06 02:05:57;;;;;;;5.72;5.10;;;;;;;8.16;61.11;100953.69;4387579;32;35283;-80
2021/11/06 02:08:34;;;;;;;5.07;4.50;;;;;;;8.06;61.30;100944.66;4400011;32;35031;-81
2021/11/06 02:11:21;;;;;;;2.87;2.67;;;;;;;7.98;61.82;100947.81;4396824;32;32640;-81
2021/11/06 02:14:31;;;;;;;4.28;3.90;;;;;;;7.88;62.09;100944.06;4387982;32;33946;-81
2021/11/06 02:17:19;;;;;;;7.00;3.90;;;;;;;8.20;61.24;100942.84;4384382;32;33546;-81
2021/11/06 02:19:48;;;;;;;5.37;4.60;;;;;;;8.25;61.06;100945.19;4374553;32;33524;-81
2021/11/06 02:22:36;;;;;;;4.60;4.18;;;;;;;8.14;61.41;100943.22;4386783;32;33441;-81
2021/11/06 02:25:24;;;;;;;4.85;4.37;;;;;;;8.14;61.25;100945.00;4390456;32;32615;-81
2021/11/06 02:28:12;;;;;;;;;;;;;;;8.22;61.02;100950.69;4390618;32;35720;-81
2021/11/06 02:30:42;;;;;;;4.85;4.15;;;;;;;8.41;60.48;100948.50;4399320;32;33921;-81
2021/11/06 02:33:29;;;;;;;4.32;4.03;;;;;;;8.34;60.55;100948.09;4374464;32;32250;-80
2021/11/06 02:36:13;;;;;;;7.75;4.75;;;;;;;8.21;60.92;100957.78;4387459;32;33820;-81
2021/11/06 02:39:01;;;;;;;3.42;3.22;;;;;;;8.12;61.41;100953.06;4366485;32;34288;-81
2021/11/06 02:41:37;;;;;;;5.72;5.22;;;;;;;7.65;63.04;100957.09;4375304;32;34777;-81
2021/11/06 02:44:11;;;;;;;4.72;4.07;;;;;;;8.18;61.08;100950.00;4391396;32;33048;-81
2021/11/06 02:47:00;;;;;;;4.40;4.00;;;;;;;8.21;60.84;100957.78;4404592;32;33570;-81
2021/11/06 02:49:48;;;;;;;4.22;3.92;;;;;;;8.15;60.95;100954.66;4390783;32;34234;-81
2021/11/06 02:52:36;;;;;;;4.50;4.12;;;;;;;8.28;60.22;100955.59;4399269;32;33833;-81
2021/11/06 02:55:23;;;;;;;6.03;4.93;;;;;;;8.47;59.60;100951.59;4391844;32;33690;-80
2021/11/06 02:58:11;;;;;;;6.93;6.22;;;;;;;8.32;59.83;100952.66;4388999;32;33534;-82
2021/11/06 03:01:00;;;;;;;3.70;3.37;;;;;;;8.33;59.80;100957.00;4397962;32;34154;-81
2021/11/06 03:04:09;;;;;;;4.20;3.90;;;;;;;7.95;61.22;100955.13;4389623;32;34020;-81
2021/11/06 03:06:57;;;;;;;4.97;4.57;;;;;;;8.24;60.34;100960.25;4379860;32;33373;-81
2021/11/06 03:10:03;;;;;;;8.80;5.40;;;;;;;7.95;61.21;100963.94;4365796;32;35092;-81
2021/11/06 03:12:30;;;;;;;5.93;5.43;;;;;;;7.43;62.77;100972.63;4374402;32;35162;-81
2021/11/06 03:15:38;;;;;;;6.47;4.62;;;;;;;7.63;62.32;100975.72;4369502;32;34257;-81
2021/11/06 03:18:42;;;;;;;4.57;4.15;;;;;;;7.49;62.97;100962.53;4372251;32;33494;-81
2021/11/06 03:21:29;;;;;;;;;;;;;;;7.44;62.90;100980.47;4372946;32;33858;-81
2021/11/06 03:24:17;;;;;;;4.78;3.67;;;;;;;7.58;62.74;100976.97;4366922;32;34549;-81
2021/11/06 03:27:05;;;;;;;;;;;;;;;7.62;62.34;100989.91;4386390;32;34993;-80
2021/11/06 03:29:53;;;;;;;9.75;5.28;;;;;;;7.60;62.64;100994.47;4374498;32;34020;-81
2021/11/06 03:33:01;;;;;;;5.00;3.62;;;;;;;7.33;62.90;100995.31;4432032;27;34374;-87
2021/11/06 03:35:30;;;;;;;6.03;5.03;;;;;;;7.34;63.17;100994.38;4386463;32;32969;-87
2021/11/06 03:37:58;;;;;;;4.75;4.25;;;;;;;7.61;nan;101001.47;4384474;32;34492;-88
2021/11/06 03:40:26;;;;;;;4.50;3.20;;;;;;;7.76;61.63;100997.84;4370624;32;31958;-87
2021/11/06 03:42:55;;;;;;;6.22;4.70;;;;;;;7.52;62.54;100994.09;4383034;32;33176;-87
2021/11/06 03:45:23;;;;;;;5.25;4.85;;;;;;;7.76;61.80;101004.94;4384563;32;34994;-87
2021/11/06 03:47:51;;;;;;;;;;;;;;;7.81;61.38;100992.25;4383253;32;34421;-87
2021/11/06 03:50:19;;;;;;;5.18;4.30;;;;;;;8.01;60.53;100989.19;4370860;32;32308;-87
2021/11/06 03:52:47;;;;;;;;;;;;;;;7.96;60.56;101004.50;4371009;32;32862;-87
2021/11/06 03:55:16;;;;;;;4.25;3.80;;;;;;;7.84;61.39;101006.13;4383420;32;35650;-86
2021/11/06 03:57:45;;;;;;;5.10;4.00;;;;;;;7.45;62.13;101013.94;4382714;32;33915;-86
2021/11/06 04:00:15;;;;;;;10.52;4.97;;;;;;;7.80;61.25;101011.72;4358293;32;33604;-87
2021/11/06 04:02:44;;;;;;;5.55;3.75;;;;;;;7.66;61.53;101015.25;4382648;32;33919;-87
2021/11/06 04:05:16;;;;;;;6.82;5.50;;;;;;;7.76;61.28;101023.47;4382938;32;34416;-88
2021/11/06 04:07:44;;;;;;;4.25;3.95;;;;;;;7.77;61.34;101018.09;4382970;32;33640;-88
2021/11/06 04:10:15;;;;;;;4.75;4.40;;;;;;;7.81;61.08;101008.16;4382882;32;33225;-87
2021/11/06 04:12:45;;;;;;;4.43;4.03;;;;;;;7.77;61.52;101003.97;4370643;32;33450;-88
2021/11/06 04:15:14;;;;;;;2.97;2.78;;;;;;;7.49;62.15;101006.66;4382701;32;36041;-87
2021/11/06 04:17:42;;;;;;;3.72;2.95;;;;;;;7.50;62.27;101003.94;4370440;32;34430;-88
2021/11/06 04:20:10;;;;;;;14.93;4.93;;;;;;;7.50;62.50;101005.72;4382737;32;32537;-87
2021/11/06 04:22:39;;;;;;;5.18;4.68;;;;;;;7.55;62.34;101003.66;4395180;32;33561;-88
2021/11/06 04:25:10;;;;;;;5.55;3.75;;;;;;;7.46;62.64;101005.06;4382916;32;35241;-88
2021/11/06 04:27:39;;;;;;;6.15;3.97;;;;;;;7.15;63.51;101009.69;4384393;32;33728;-88
2021/11/06 04:30:07;;;;;;;4.75;3.87;;;;;;;7.49;62.45;101017.25;4383398;32;33004;-88
2021/11/06 04:32:36;;;;;;;5.22;4.72;;;;;;;7.48;62.65;101016.44;4382760;32;34674;-88
2021/11/06 04:35:04;;;;;;;6.10;4.85;;;;;;;7.48;62.64;101020.84;4397889;32;35285;-88
2021/11/06 04:37:34;;;;;;;3.85;3.58;;;;;;;7.49;62.78;101018.12;4382974;32;33813;-88
2021/11/06 04:40:03;;;;;;;4.28;3.12;;;;;;;7.37;62.93;101018.03;4382255;32;32364;-88
2021/11/06 04:42:33;;;;;;;3.67;3.37;;;;;;;7.64;62.47;101016.31;4384047;32;35657;-88
2021/11/06 04:45:04;;;;;;;4.10;3.58;;;;;;;7.61;62.65;101016.50;4382908;32;35447;-88
2021/11/06 04:47:32;;;;;;;4.53;4.12;;;;;;;7.48;62.84;101018.22;4384080;32;33695;-88
2021/11/06 04:50:03;;;;;;;4.20;3.95;;;;;;;7.76;61.95;101020.84;4382649;32;32890;-88
2021/11/06 04:52:31;;;;;;;4.25;3.85;;;;;;;7.87;61.16;101019.22;4370226;32;33757;-88
2021/11/06 04:55:16;;;;;;;2.45;2.35;;;;;;;7.87;61.22;101027.16;4393963;32;35130;-87
2021/11/06 04:57:45;;;;;;;7.35;4.45;;;;;;;7.84;61.20;101027.34;4382194;32;35750;-87
2021/11/06 05:00:14;;;;;;;8.63;5.10;;;;;;;7.66;61.46;101036.44;4382574;32;33615;-88
2021/11/06 05:02:43;;;;;;;4.20;3.50;;;;;;;7.96;60.71;101031.00;4383042;32;32807;-87
2021/11/06 05:05:11;;;;;;;4.60;4.00;;;;;;;7.89;60.74;101029.69;4397167;32;33930;-88
2021/11/06 05:07:39;;;;;;;3.67;3.47;;;;;;;8.04;60.11;101034.88;4383779;32;34814;-87
2021/11/06 05:10:07;;;;;;;3.72;3.37;;;;;;;8.00;60.13;101043.97;4383933;32;32765;-87
2021/11/06 05:12:35;;;;;;;5.45;4.22;;;;;;;8.00;60.18;101041.31;4382671;32;33357;-88
2021/11/06 05:15:04;;;;;;;4.45;3.95;;;;;;;7.97;60.23;101052.12;4382705;32;35043;-87
2021/11/06 05:17:33;;;;;;;4.55;2.95;;;;;;;8.09;59.73;101058.44;4387795;32;34991;-86
2021/11/06 05:20:01;;;;;;;4.53;4.12;;;;;;;8.29;58.81;101061.53;4395385;32;34045;-88
2021/11/06 05:22:29;;;;;;;6.87;4.47;;;;;;;8.01;59.61;101052.78;4384272;32;33895;-89
2021/11/06 05:25:02;;;;;;;6.62;4.07;;;;;;;7.80;60.30;101054.13;4370530;32;34300;-87
2021/11/06 05:27:30;;;;;;;5.43;4.22;;;;;;;7.80;60.34;101057.63;4382816;32;33972;-88
2021/11/06 05:29:59;;;;;;;4.12;3.75;;;;;;;8.23;59.14;101061.06;4382902;32;34280;-88
2021/11/06 05:32:27;;;;;;;8.93;4.28;;;;;;;8.02;59.50;101052.66;4382818;32;34036;-87
2021/11/06 05:34:55;;;;;;;10.98;5.47;;;;;;;7.80;59.85;101054.97;4382581;32;35929;-87
2021/11/06 05:37:22;;;;;;;3.33;3.05;;;;;;;7.64;60.68;101067.47;4382572;32;33448;-88
2021/11/06 05:39:50;;;;;;;;;;;;;;;7.55;60.81;101077.78;4383052;32;33185;-87
2021/11/06 05:42:18;;;;;;;7.55;5.10;;;;;;;7.62;61.06;101073.81;4382899;32;34207;-87
2021/11/06 05:44:46;;;;;;;5.93;4.05;;;;;;;7.36;62.31;101085.16;4369627;32;34660;-88
2021/11/06 05:47:13;;;;;;;6.87;4.40;;;;;;;7.24;62.79;101097.31;4382552;32;32246;-87
2021/11/06 05:49:41;;;;;;;6.45;4.97;;;;;;;7.52;62.23;101088.56;4382193;32;33372;-88
2021/11/06 05:52:29;;;;;;;7.10;3.80;;;;;;;7.58;61.94;101101.44;4382510;32;33662;-87
2021/11/06 05:54:57;;;;;;;4.82;4.30;;;;;;;7.43;61.98;101089.97;4370035;32;34341;-87
2021/11/06 05:57:25;;;;;;;4.90;4.53;;;;;;;7.54;61.74;101102.56;4397391;32;34171;-87
2021/11/06 05:59:56;;;;;;;5.07;4.60;;;;;;;7.55;61.57;101104.28;4369998;32;32910;-87
2021/11/06 06:02:24;;;;;;;4.90;4.53;;;;;;;7.17;62.93;101114.50;4383890;32;33897;-87
2021/11/06 06:04:53;;;;;;;5.05;4.60;;;;;;;7.14;63.11;101111.19;4395707;32;35596;-88
2021/11/06 06:07:21;;;;;;;;;;;;;;;7.35;62.45;101115.22;4386339;32;32354;-87
2021/11/06 06:09:48;;;;;;;6.97;4.95;;;;;;;7.19;63.13;101125.00;4381285;32;33740;-88
2021/11/06 06:12:17;;;;;;;10.77;6.40;;;;;;;7.31;62.89;101125.13;4380451;32;33000;-88
2021/11/06 06:14:47;;;;;;;10.95;6.05;;;;;;;7.24;62.90;101141.47;4381594;32;35331;-87
2021/11/06 06:17:16;;;;;;;5.40;5.00;;;;;;;7.35;62.51;101137.22;4381181;32;34569;-87
2021/11/06 06:19:44;;;;;;;6.53;5.65;;;;;;;7.40;62.40;101137.81;4383126;32;34288;-87
2021/11/06 06:22:13;;;;;;;6.90;6.18;;;;;;;7.56;61.87;101140.41;4380863;32;33851;-87
2021/11/06 06:24:43;;;;;;;6.75;5.60;;;;;;;7.28;62.79;101146.47;4384390;32;37244;-87
2021/11/06 06:27:11;;;;;;;5.03;4.62;;;;;;;7.29;62.80;101140.25;4380405;32;35008;-88
2021/11/06 06:29:40;;;;;;;7.57;4.55;;;;;;;7.50;61.88;101138.09;4368874;32;33446;-87
2021/11/06 06:32:08;;;;;;;5.72;5.20;;;;;;;7.53;62.03;101146.72;4382150;32;33046;-87
2021/11/06 06:34:36;;;;;;;9.30;6.15;;;;;;;7.39;62.55;101151.16;4356362;32;34352;-87
2021/11/06 06:37:04;;;;;;;6.50;6.00;;;;;;;7.43;62.28;101169.41;4381297;32;34863;-88
2021/11/06 06:39:31;;;;;;;5.62;5.12;;;;;;;7.50;62.31;101170.75;4395927;32;34270;-88
2021/11/06 06:42:02;;;;;;;8.27;5.15;;;;;;;7.71;61.95;101165.94;4381344;32;34877;-88
2021/11/06 06:44:30;;;;;;;;;;;;;;;7.75;62.19;101165.66;4381449;32;35199;-88
2021/11/06 06:47:01;;;;;;;6.05;5.47;;;;;;;7.34;63.56;101169.09;4393650;32;34054;-88
2021/11/06 06:49:32;;;;;;;6.72;5.95;;;;;;;7.36;63.57;101165.41;4391839;32;34100;-87
2021/11/06 06:52:00;;;;;;;6.22;5.82;;;;;;;7.32;63.69;101171.84;4381093;32;34697;-87
2021/11/06 06:54:28;;;;;;;;;;;;;;;7.48;63.14;101163.84;4381196;32;35641;-87
2021/11/06 06:56:59;;;;;;;9.60;6.55;;;;;;;7.53;63.10;101167.91;4392962;32;34015;-87
2021/11/06 06:59:26;;;;;;;6.70;5.82;;;;;;;7.55;62.98;101175.78;4387092;32;32345;-88
2021/11/06 07:02:06;;;;;;;4.78;4.37;;;;;;;7.76;62.47;101171.81;4392122;32;35319;-87
2021/11/06 07:04:34;;;;;;;7.32;6.37;;;;;;;7.89;62.45;101180.72;4368164;32;33735;-87
2021/11/06 07:07:02;;;;;;;;;;;;;;;7.91;62.30;101178.84;4369004;32;34093;-88
2021/11/06 07:09:32;;;;;;;6.30;5.57;;;;;;;8.07;62.16;101177.78;4393156;32;32812;-88
2021/11/06 07:12:00;;;;;;;8.50;4.12;;;;;;;7.82;63.10;101188.19;4394949;32;33949;-87
2021/11/06 07:14:27;;;;;;;5.50;5.10;;;;;;;7.91;62.68;101184.97;4380547;32;33195;-88
2021/11/06 07:16:55;;;;;;;5.60;5.05;;;;;;;8.04;62.65;101193.03;4383785;32;33707;-88
2021/11/06 07:19:25;;;;;;;6.00;5.43;;;;;;;8.10;62.10;101192.66;4368861;32;34438;-87
2021/11/06 07:21:54;;;;;;;5.68;4.62;;;;;;;7.94;62.29;101191.91;4369451;32;34253;-87
2021/11/06 07:24:22;;;;;;;6.07;5.60;;;;;;;7.88;63.38;101202.84;4393292;32;34677;-87
2021/11/06 07:26:50;;;;;;;6.07;5.68;;;;;;;8.13;62.24;101201.25;4380257;32;32701;-88
2021/11/06 07:29:20;;;;;;;8.30;4.62;;;;;;;8.10;62.25;101206.75;4381475;32;33359;-88
2021/11/06 07:31:48;;;;;;;6.25;5.65;;;;;;;8.45;61.23;101221.34;4394307;32;32267;-87
2021/11/06 07:34:15;;;;;;;5.45;4.95;;;;;;;8.10;62.67;101212.03;4397845;32;35773;-88
2021/11/06 07:36:45;;;;;;;6.00;3.83;;;;;;;8.48;61.37;101219.34;4381332;32;34164;-87
2021/11/06 07:39:13;;;;;;;5.82;5.30;;;;;;;8.18;62.58;101216.87;4381346;32;32506;-88
2021/11/06 07:41:42;;;;;;;6.03;5.53;;;;;;;8.44;61.86;101219.66;4369571;32;33635;-87
2021/11/06 07:44:12;;;;;;;3.95;3.65;;;;;;;8.65;61.81;101218.28;4385391;32;34823;-88
2021/11/06 07:46:40;;;;;;;6.85;5.60;;;;;;;8.70;61.19;101217.03;4399364;32;33630;-88
2021/11/06 07:49:08;;;;;;;10.65;7.47;;;;;;;8.78;61.16;101214.75;4382486;32;32935;-88
2021/11/06 07:51:37;;;;;;;5.65;5.22;;;;;;;8.86;61.02;101224.84;4381128;32;33081;-88
2021/11/06 07:54:05;;;;;;;6.20;5.60;;;;;;;8.79;60.61;101218.28;4381359;32;34730;-87
2021/11/06 07:56:36;;;;;;;5.93;5.43;;;;;;;9.27;60.02;101212.41;4381085;32;33875;-88
2021/11/06 07:59:06;;;;;;;6.97;6.28;;;;;;;9.30;60.27;101221.03;4382598;32;33245;-88
2021/11/06 08:01:34;;;;;;;6.57;5.87;;;;;;;9.35;59.60;101220.72;4380760;32;32663;-88
2021/11/06 08:04:01;;;;;;;6.53;5.55;;;;;;;9.19;60.29;101225.31;4380574;32;34159;-88
2021/11/06 08:06:29;;;;;;;8.02;5.85;;;;;;;9.53;59.43;101222.97;4381392;32;33985;-88
2021/11/06 08:08:57;;;;;;;;;;;;;;;9.68;58.71;101224.59;4383723;32;32963;-88
2021/11/06 08:11:27;;;;;;;7.10;5.30;;;;;;;9.91;58.54;101223.03;4395396;32;34019;-88
2021/11/06 08:13:56;;;;;;;4.70;4.37;;;;;;;9.94;58.74;101228.97;4402081;32;34616;-87
2021/11/06 08:16:24;;;;;;;5.70;5.20;;;;;;;10.00;58.43;101228.56;4384802;32;34596;-87
2021/11/06 08:18:52;;;;;;;7.20;5.72;;;;;;;10.21;58.14;101231.56;4395257;32;33175;-88
2021/11/06 08:21:32;;;;;;;3.67;3.37;;;;;;;10.43;56.92;101229.09;4372214;32;33897;-88
2021/11/06 08:24:00;;;;;;;;;;;;;;;10.23;57.71;101224.31;4399190;32;36109;-88
2021/11/06 08:26:28;;;;;;;4.53;3.95;;;;;;;10.45;57.00;101227.16;4396021;32;34746;-86
2021/11/06 08:28:56;;;;;;;4.82;4.43;;;;;;;10.65;56.52;101222.12;4371216;32;33524;-88
2021/11/06 08:31:25;;;;;;;5.30;4.35;;;;;;;10.31;57.17;101228.12;4382775;32;34620;-87
2021/11/06 08:33:56;;;;;;;4.12;3.85;;;;;;;10.53;57.07;101227.47;4382935;32;35491;-89
2021/11/06 08:36:25;;;;;;;6.43;4.75;;;;;;;10.62;55.56;101233.00;4395562;32;34584;-88
2021/11/06 08:38:54;;;;;;;4.53;4.20;;;;;;;10.59;57.29;101232.38;4369545;32;32999;-88
2021/11/06 08:41:28;;;;;;;5.97;5.47;;;;;;;11.02;55.40;101233.63;4400791;32;34095;-88
2021/11/06 08:43:56;;;;;;;4.20;3.90;;;;;;;11.16;55.15;101230.78;4384649;32;34976;-88
2021/11/06 08:46:23;;;;;;;4.35;3.72;;;;;;;11.17;54.31;101228.03;4384932;32;34738;-87
2021/11/06 08:48:52;;;;;;;3.50;3.20;;;;;;;11.25;54.28;101230.13;4370094;32;32475;-88
2021/11/06 08:51:23;;;;;;;4.35;3.65;;;;;;;11.10;54.59;101231.22;4382636;32;33079;-87
2021/11/06 08:53:52;;;;;;;3.83;3.53;;;;;;;11.20;55.07;101240.25;4358428;32;34175;-87
2021/11/06 08:56:24;;;;;;;10.75;5.62;;;;;;;11.23;54.69;101242.69;4382757;32;33519;-88
2021/11/06 08:58:52;;;;;;;4.07;3.78;;;;;;;11.56;54.03;101243.69;4402314;32;33342;-87
2021/11/06 09:01:25;;;;;;;2.58;2.47;;;;;;;11.98;52.81;101232.44;4383163;32;32835;-88
2021/11/06 09:03:57;;;;;;;4.65;4.22;;;;;;;12.03;52.97;101238.28;4382176;32;33253;-88
2021/11/06 09:06:25;;;;;;;3.87;3.58;;;;;;;11.99;53.92;101240.34;4384378;32;34286;-88
2021/11/06 09:08:56;;;;;;;4.25;3.85;;;;;;;11.77;53.49;101242.09;4384397;32;34042;-88
2021/11/06 09:11:26;;;;;;;3.70;3.45;;;;;;;11.74;54.82;101247.66;4382454;32;33392;-88
2021/11/06 09:13:56;;;;;;;4.12;3.83;;;;;;;12.16;53.00;101237.22;4382594;32;35062;-88
2021/11/06 09:16:26;;;;;;;3.65;3.35;;;;;;;12.31;52.50;101237.84;4383126;32;33124;-88
2021/11/06 09:18:54;;;;;;;5.05;3.62;;;;;;;12.55;51.58;101238.56;4380863;32;33493;-87
2021/11/06 09:21:24;;;;;;;;;;;;;;;12.35;52.10;101239.28;4395819;32;33340;-88
2021/11/06 09:23:55;;;;;;;3.72;2.78;;;;;;;12.50;51.63;101241.59;4384195;32;35376;-87
2021/11/06 09:26:25;;;;;;;5.60;4.30;;;;;;;12.29;51.31;101242.44;4399188;32;36454;-88
2021/11/06 09:28:53;;;;;;;3.50;3.28;;;;;;;12.31;52.18;101245.84;4371351;32;33202;-88
2021/11/06 09:31:21;;;;;;;3.87;3.17;;;;;;;11.97;52.67;101244.94;4382723;32;33451;-87
2021/11/06 09:33:49;;;;;;;5.70;5.03;;;;;;;12.55;52.02;101247.41;4381663;32;33892;-88
2021/11/06 09:36:23;;;;;;;2.95;2.75;;;;;;;12.45;52.05;101241.09;4381068;32;33974;-88
2021/11/06 09:38:52;;;;;;;3.50;3.20;;;;;;;12.57;51.47;101237.47;4382381;32;31838;-88
2021/11/06 09:41:24;;;;;;;4.68;3.60;;;;;;;12.47;50.21;101233.81;4384273;32;33472;-89
2021/11/06 09:43:52;;;;;;;2.08;1.98;;;;;;;12.62;49.88;101235.28;4384219;32;36707;-90
2021/11/06 09:46:20;;;;;;;2.95;2.70;;;;;;;12.85;49.84;101238.78;4370053;32;33235;-89
2021/11/06 09:48:50;;;;;;;2.08;1.92;;;;;;;13.01;49.68;101236.56;4382651;32;33733;-89
2021/11/06 09:51:20;;;;;;;3.47;2.83;;;;;;;12.55;49.10;101241.25;4382128;32;35015;-88
2021/11/06 09:53:51;;;;;;;2.20;2.00;;;;;;;13.00;50.40;101234.88;4382390;32;33825;-89
2021/11/06 09:56:23;;;;;;;2.25;2.05;;;;;;;13.19;49.56;101229.72;4370364;32;33564;-88
2021/11/06 09:58:54;;;;;;;4.05;2.08;;;;;;;13.44;48.50;101245.44;4395037;32;33466;-87
2021/11/06 10:01:22;;;;;;;3.65;3.35;;;;;;;13.20;48.58;101232.28;4376959;32;33005;-87
2021/11/06 10:03:54;;;;;;;3.33;3.12;;;;;;;13.30;49.36;101237.75;4381535;32;35321;-88
2021/11/06 10:06:25;;;;;;;2.87;2.67;;;;;;;13.36;50.13;101238.06;4381684;32;33606;-89
2021/11/06 10:09:08;;;;;;;3.62;3.42;;;;;;;12.99;51.61;101234.06;4382624;32;33831;-89
2021/11/06 10:11:52;;;;;;;3.25;2.97;;;;;;;13.23;49.08;101226.69;4383243;32;33650;-88
2021/11/06 10:14:25;;;;;;;6.35;3.72;;;;;;;13.41;49.58;101216.31;4383664;32;35075;-89
2021/11/06 10:17:00;;;;;;;3.05;2.85;;;;;;;13.75;48.20;101216.00;4384082;32;34642;-89
2021/11/06 10:19:30;;;;;;;4.90;4.47;;;;;;;13.42;48.89;101216.16;4387609;32;32801;-88
2021/11/06 10:22:06;;;;;;;3.20;3.00;;;;;;;13.43;49.08;101207.19;4382490;32;32669;-88
2021/11/06 10:24:51;;;;;;;4.60;4.20;;;;;;;13.72;48.45;101210.06;4395469;32;35664;-88
2021/11/06 10:27:32;;;;;;;2.83;2.62;;;;;;;13.80;48.76;101208.47;4380658;32;34931;-88
2021/11/06 10:30:03;;;;;;;3.05;2.85;;;;;;;13.71;49.22;101195.87;4380002;32;33112;-88
2021/11/06 10:32:33;;;;;;;2.92;2.67;;;;;;;13.92;48.51;101199.37;4392591;32;34659;-88
2021/11/06 10:35:17;;;;;;;3.28;3.08;;;;;;;14.05;47.50;101200.00;4391958;32;34857;-88
2021/11/06 10:37:48;;;;;;;3.53;3.22;;;;;;;14.29;47.12;101189.03;4380752;32;33554;-88
2021/11/06 10:40:20;;;;;;;2.80;2.70;;;;;;;13.91;47.69;101194.13;4382732;32;33737;-88
2021/11/06 10:42:53;;;;;;;4.00;3.12;;;;;;;14.22;48.26;101191.38;4393340;32;33453;-87
2021/11/06 10:45:25;;;;;;;5.03;2.28;;;;;;;14.32;48.13;101191.44;4397968;32;34229;-87
2021/11/06 10:48:13;;;;;;;3.75;3.45;;;;;;;14.70;45.23;101187.06;4357110;32;33440;-88
2021/11/06 10:50:50;;;;;;;3.55;3.33;;;;;;;14.73;46.41;101178.78;4398938;32;33205;-86
2021/11/06 10:53:30;;;;;;;3.67;3.37;;;;;;;14.97;45.12;101180.09;4393917;32;33214;-87
2021/11/06 10:56:01;;;;;;;3.85;3.05;;;;;;;14.99;45.23;101171.88;4394259;32;33739;-86
2021/11/06 10:58:34;;;;;;;3.37;3.08;;;;;;;14.70;45.82;101168.31;4383058;32;34239;-86
2021/11/06 11:01:07;;;;;;;3.67;3.10;;;;;;;15.42;45.19;101159.78;4379095;32;32376;-87
2021/11/06 11:03:38;;;;;;;11.93;3.25;;;;;;;15.17;44.49;101160.34;4381373;32;32710;-87
2021/11/06 11:06:09;;;;;;;2.15;1.85;;;;;;;15.09;43.96;101157.53;4368119;32;33524;-88
2021/11/06 11:08:44;;;;;;;2.42;2.22;;;;;;;15.21;43.86;101156.38;4381895;32;35069;-88
2021/11/06 11:11:19;;;;;;;2.45;2.33;;;;;;;15.45;43.52;101147.94;4395812;32;31680;-87
2021/11/06 11:14:00;;;;;;;1.85;1.75;;;;;;;15.53;43.76;101138.22;4383313;32;33552;-88
2021/11/06 11:16:30;;;;;;;2.33;1.55;;;;;;;15.62;43.21;101123.94;4394106;32;34882;-87
2021/11/06 11:19:09;;;;;;;5.00;2.53;;;;;;;15.85;42.52;101124.44;4381878;32;34349;-88
2021/11/06 11:21:41;;;;;;;3.60;2.62;;;;;;;15.89;42.70;101126.69;4381969;32;33567;-88
2021/11/06 11:24:14;;;;;;;2.12;1.98;;;;;;;15.77;41.21;101122.47;4381970;32;34584;-87
2021/11/06 11:26:47;;;;;;;1.45;1.40;;;;;;;15.42;42.29;101126.78;4368190;32;33425;-88
2021/11/06 11:29:24;;;;;;;1.92;1.75;;;;;;;15.93;41.20;101119.16;4375534;32;33375;-89
2021/11/06 11:31:57;;;;;;;4.07;3.50;;;;;;;15.69;41.52;101125.03;4380633;32;33050;-89
2021/11/06 11:34:25;;;;;;;2.10;1.95;;;;;;;15.93;42.64;101124.53;4367584;32;33488;-89
2021/11/06 11:36:55;;;;;;;1.85;1.60;;;;;;;15.91;42.67;101116.66;4397359;32;34998;-89
2021/11/06 11:39:26;;;;;;;1.55;1.42;;;;;;;15.72;43.12;101113.16;4381251;32;34674;-90
2021/11/06 11:42:18;;;;;;;2.28;1.83;;;;;;;16.35;41.82;101113.19;4386957;32;32752;-90
2021/11/06 11:45:18;;;;;;;3.25;2.60;;;;;;;16.39;40.80;101103.03;4383618;32;33070;-88
2021/11/06 11:47:59;;;;;;;2.90;2.62;;;;;;;16.26;39.05;101108.72;4383913;32;34895;-91
2021/11/06 11:50:38;;;;;;;2.67;2.45;;;;;;;16.32;40.19;101109.97;4372544;32;34181;-92
2021/11/06 11:53:32;;;;;;;1.60;1.50;;;;;;;16.32;40.72;101105.44;4393353;32;32857;-90
2021/11/06 11:56:05;;;;;;;2.08;1.77;;;;;;;15.97;41.08;101099.13;4382901;32;33610;-89
2021/11/06 11:58:39;;;;;;;2.70;2.47;;;;;;;15.81;40.98;101099.75;4371544;32;34435;-88
2021/11/06 12:01:17;;;;;;;2.10;1.30;;;;;;;15.78;40.31;101099.19;4383300;32;34539;-89
2021/11/06 12:03:53;;;;;;;0.93;0.93;;;;;;;15.86;40.16;101097.44;4394760;32;34774;-88
2021/11/06 12:06:35;;;;;;;3.80;1.87;;;;;;;16.38;37.66;101093.28;4383197;32;32853;-89
2021/11/06 12:09:14;;;;;;;1.17;1.15;;;;;;;16.04;38.27;101093.00;4383604;32;34978;-89
2021/11/06 12:11:48;;;;;;;1.02;0.90;;;;;;;16.27;38.16;101091.63;4384321;32;34073;-89